Time;durP1;ratioP1;P1;durP2;ratioP2;P2;SDS_P1;SDS_P2;PMS_P1;PMS_P2;Temp;Humidity;BMP_temperature;BMP_pressure;BME280_temperature;BME280_humidity;BME280_pressure;Samples;Min_cycle;Max_cycle;Signal;HPM_P1;HPM_P2
2022/01/07 00:01:23;;;;;;;24.10;11.38;;;-2.40;99.90;;;;;;4968736;28;20037;-74
2022/01/07 00:03:51;;;;;;;27.08;10.85;;;-2.40;99.90;;;;;;4965628;28;20110;-74
2022/01/07 00:06:18;;;;;;;28.05;10.77;;;-2.40;99.90;;;;;;4971604;28;20058;-74
2022/01/07 00:08:43;;;;;;;26.60;11.07;;;-2.50;99.90;;;;;;4972489;28;20034;-72
2022/01/07 00:11:09;;;;;;;24.25;10.95;;;-2.50;99.90;;;;;;4971135;28;20100;-70
2022/01/07 00:13:35;;;;;;;26.80;12.02;;;-2.50;99.90;;;;;;4963222;28;20058;-72
2022/01/07 00:16:01;;;;;;;28.15;11.82;;;-2.50;99.90;;;;;;4971715;28;20534;-72
2022/01/07 00:18:27;;;;;;;30.83;11.40;;;-2.60;99.90;;;;;;4954379;28;20088;-72
2022/01/07 00:20:53;;;;;;;19.98;10.77;;;-2.60;99.90;;;;;;4971585;28;20027;-71
2022/01/07 00:23:19;;;;;;;33.47;13.18;;;-2.70;99.90;;;;;;4967116;28;20019;-73
2022/01/07 00:25:45;;;;;;;38.45;15.55;;;-2.70;99.90;;;;;;4964068;28;20416;-72
2022/01/07 00:28:11;;;;;;;30.58;14.27;;;-2.70;99.90;;;;;;4972211;28;20086;-70
2022/01/07 00:30:37;;;;;;;29.42;13.75;;;-2.60;99.90;;;;;;4968855;28;20045;-73
2022/01/07 00:33:05;;;;;;;26.65;13.70;;;-2.60;99.90;;;;;;4971989;28;20027;-72
2022/01/07 00:35:30;;;;;;;33.08;13.48;;;-2.60;99.90;;;;;;4971035;28;20030;-72
2022/01/07 00:37:56;;;;;;;30.77;13.15;;;-2.70;99.90;;;;;;4972077;28;20038;-72
2022/01/07 00:40:24;;;;;;;26.13;12.02;;;-2.70;99.90;;;;;;4971457;28;20030;-72
2022/01/07 00:42:51;;;;;;;31.50;12.85;;;-2.80;99.90;;;;;;4972417;28;20063;-72
2022/01/07 00:45:19;;;;;;;34.03;14.23;;;-2.80;99.90;;;;;;4971262;28;20034;-72
2022/01/07 00:47:45;;;;;;;35.65;13.18;;;-2.80;99.90;;;;;;4971911;28;20043;-72
2022/01/07 00:50:12;;;;;;;35.78;14.45;;;-2.80;99.90;;;;;;4971865;28;20094;-70
2022/01/07 00:52:38;;;;;;;36.47;13.50;;;-2.80;99.90;;;;;;4972312;28;20038;-72
2022/01/07 00:55:06;;;;;;;22.58;11.70;;;-2.70;99.90;;;;;;4972270;28;20035;-72
2022/01/07 00:57:32;;;;;;;25.27;11.10;;;-2.70;99.90;;;;;;4971508;28;20207;-72
2022/01/07 00:59:57;;;;;;;28.23;11.98;;;-2.70;99.90;;;;;;4972699;28;20027;-72
2022/01/07 01:02:23;;;;;;;20.98;11.40;;;-2.80;99.90;;;;;;4972692;28;20034;-74
2022/01/07 01:04:48;;;;;;;26.90;11.27;;;-2.80;99.90;;;;;;4971448;28;20034;-73
2022/01/07 01:07:15;;;;;;;27.95;11.65;;;-2.80;99.90;;;;;;4971407;28;20090;-74
2022/01/07 01:09:42;;;;;;;22.02;10.63;;;-2.80;99.90;;;;;;4972005;28;20046;-74
2022/01/07 01:12:09;;;;;;;22.33;11.10;;;-2.90;99.90;;;;;;4972331;28;20460;-72
2022/01/07 01:14:35;;;;;;;19.45;9.68;;;-2.90;99.90;;;;;;4970801;28;20050;-74
2022/01/07 01:17:01;;;;;;;24.20;9.77;;;-2.90;99.90;;;;;;4971704;28;20038;-74
2022/01/07 01:19:27;;;;;;;26.38;10.93;;;-2.90;99.90;;;;;;4971447;28;20050;-74
2022/01/07 01:21:54;;;;;;;25.30;9.63;;;-2.90;99.90;;;;;;4971958;28;20038;-74
2022/01/07 01:24:20;;;;;;;19.98;9.75;;;-2.90;99.90;;;;;;4971157;28;20098;-74
2022/01/07 01:26:46;;;;;;;23.05;9.55;;;-2.90;99.90;;;;;;4972146;28;20086;-74
2022/01/07 01:29:12;;;;;;;21.00;9.93;;;-2.90;99.90;;;;;;4971556;28;20042;-71
2022/01/07 01:31:37;;;;;;;21.67;10.18;;;-3.00;99.90;;;;;;4971875;28;20488;-74
2022/01/07 01:34:04;;;;;;;21.40;9.93;;;-3.00;99.90;;;;;;4971408;28;20608;-73
2022/01/07 01:36:30;;;;;;;27.58;10.10;;;-3.00;99.90;;;;;;4971128;28;20110;-74
2022/01/07 01:38:56;;;;;;;22.73;9.68;;;-3.10;99.90;;;;;;4973910;28;20027;-74
2022/01/07 01:41:23;;;;;;;23.25;10.18;;;-3.10;99.90;;;;;;4976022;28;20031;-74
2022/01/07 01:43:49;;;;;;;26.35;10.88;;;-3.10;99.90;;;;;;4976406;28;20035;-74
2022/01/07 01:46:19;;;;;;;23.15;10.55;;;-3.10;99.90;;;;;;4975782;28;20041;-74
2022/01/07 01:48:45;;;;;;;;;;;-3.10;99.90;;;;;;4976664;28;20039;-74
2022/01/07 01:51:11;;;;;;;29.23;10.57;;;-3.10;99.90;;;;;;4976276;28;19921;-71
2022/01/07 01:53:37;;;;;;;22.48;9.50;;;-3.10;99.90;;;;;;4975757;28;20453;-74
2022/01/07 01:56:04;;;;;;;23.50;9.30;;;-3.20;99.90;;;;;;4976108;28;20113;-74
2022/01/07 01:58:30;;;;;;;22.05;9.57;;;-3.10;99.90;;;;;;4974519;28;20039;-74
2022/01/07 02:00:55;;;;;;;25.42;10.18;;;-3.20;99.90;;;;;;4976264;28;20035;-74
2022/01/07 02:03:22;;;;;;;30.05;10.73;;;-3.20;99.90;;;;;;4975370;28;20041;-73
2022/01/07 02:05:47;;;;;;;21.33;10.18;;;-3.20;99.90;;;;;;4976073;28;20039;-74
2022/01/07 02:08:14;;;;;;;26.02;10.63;;;-3.20;99.90;;;;;;4975762;28;20107;-71
2022/01/07 02:10:40;;;;;;;18.17;9.25;;;-3.20;99.90;;;;;;4976207;28;20551;-74
2022/01/07 02:13:06;;;;;;;26.30;10.63;;;-3.30;99.90;;;;;;4976137;28;20031;-74
2022/01/07 02:15:31;;;;;;;26.80;10.63;;;-3.30;99.90;;;;;;4975142;28;20027;-74
2022/01/07 02:17:58;;;;;;;28.70;11.18;;;-3.30;99.90;;;;;;4976123;28;20101;-74
2022/01/07 02:20:28;;;;;;;29.45;11.07;;;-3.20;99.90;;;;;;4974765;28;20047;-74
2022/01/07 02:22:55;;;;;;;29.52;12.05;;;-3.20;99.90;;;;;;4975165;28;20476;-74
2022/01/07 02:25:21;;;;;;;30.45;11.63;;;-3.10;99.90;;;;;;4973912;28;20026;-74
2022/01/07 02:27:48;;;;;;;26.83;10.60;;;-3.00;99.90;;;;;;4975612;28;20042;-74
2022/01/07 02:30:33;;;;;;;23.13;10.95;;;-3.10;99.90;;;;;;4975276;28;20500;-71
2022/01/07 02:32:59;;;;;;;27.55;11.30;;;-3.00;99.90;;;;;;4975558;28;20042;-74
2022/01/07 02:35:29;;;;;;;27.30;10.80;;;-3.00;99.90;;;;;;4974417;28;20472;-74
2022/01/07 02:37:55;;;;;;;26.48;10.60;;;-3.00;99.90;;;;;;4975535;28;20086;-73
2022/01/07 02:40:21;;;;;;;25.45;10.45;;;-3.00;99.90;;;;;;4974813;28;20027;-74
2022/01/07 02:42:47;;;;;;;25.77;11.65;;;-3.00;99.90;;;;;;4975349;28;20431;-73
2022/01/07 02:45:14;;;;;;;23.13;10.57;;;-2.70;99.90;;;;;;4974457;28;20049;-72
2022/01/07 02:47:57;;;;;;;24.05;11.77;;;-2.60;99.90;;;;;;4975420;28;20114;-74
2022/01/07 02:50:43;;;;;;;29.00;12.75;;;-2.60;99.90;;;;;;4973310;28;20043;-74
2022/01/07 02:53:10;;;;;;;27.95;11.02;;;-2.60;99.90;;;;;;4975457;28;20023;-74
2022/01/07 02:55:37;;;;;;;30.88;11.68;;;-2.70;99.90;;;;;;4974375;28;20058;-74
2022/01/07 02:58:03;;;;;;;24.52;10.48;;;-2.70;99.90;;;;;;4975506;28;20036;-74
2022/01/07 03:00:29;;;;;;;23.85;10.60;;;-2.70;99.90;;;;;;4974496;28;20464;-74
2022/01/07 03:02:57;;;;;;;25.30;10.55;;;-2.70;99.90;;;;;;4975039;28;20023;-73
2022/01/07 03:05:24;;;;;;;23.25;10.18;;;-2.70;99.90;;;;;;4974225;28;20041;-73
2022/01/07 03:07:50;;;;;;;25.92;12.07;;;-2.80;99.90;;;;;;4974641;28;20496;-73
2022/01/07 03:10:19;;;;;;;29.75;14.15;;;-2.80;99.90;;;;;;4974042;28;20046;-71
2022/01/07 03:12:45;;;;;;;33.70;13.98;;;-2.70;99.90;;;;;;4974636;28;20035;-73
2022/01/07 03:15:15;;;;;;;30.70;13.90;;;-2.80;99.90;;;;;;4957364;28;20047;-72
2022/01/07 03:17:41;;;;;;;25.92;13.57;;;-2.80;99.90;;;;;;4954871;29;20503;-73
2022/01/07 03:20:09;;;;;;;27.83;12.45;;;-2.70;99.90;;;;;;4937976;29;20031;-73
2022/01/07 03:22:34;;;;;;;29.00;14.40;;;-2.80;99.90;;;;;;4954577;29;20029;-73
2022/01/07 03:25:00;;;;;;;31.95;13.10;;;-2.80;99.90;;;;;;4955034;29;20039;-73
2022/01/07 03:27:26;;;;;;;28.20;12.82;;;-2.70;99.90;;;;;;4954423;29;20058;-73
2022/01/07 03:29:51;;;;;;;24.00;12.85;;;-2.70;99.90;;;;;;4955389;29;20043;-73
2022/01/07 03:32:17;;;;;;;28.73;12.52;;;-2.70;99.90;;;;;;4954739;29;20027;-72
2022/01/07 03:34:43;;;;;;;19.75;9.95;;;-2.70;99.90;;;;;;4955028;29;20396;-73
2022/01/07 03:37:08;;;;;;;19.23;9.95;;;-2.70;99.90;;;;;;4954896;29;20032;-73
2022/01/07 03:39:34;;;;;;;23.85;9.55;;;-2.70;99.90;;;;;;4953736;29;20139;-73
2022/01/07 03:42:00;;;;;;;20.77;9.93;;;-2.70;99.90;;;;;;4953604;29;20031;-72
2022/01/07 03:44:25;;;;;;;20.10;8.82;;;-2.60;99.90;;;;;;4953112;29;20031;-73
2022/01/07 03:46:51;;;;;;;21.55;9.00;;;-2.60;99.90;;;;;;4953696;29;20050;-72
2022/01/07 03:49:17;;;;;;;20.85;7.07;;;-2.50;99.90;;;;;;4954408;29;20035;-69
2022/01/07 03:51:42;;;;;;;16.83;6.78;;;-2.30;99.90;;;;;;4954803;29;20058;-71
2022/01/07 03:54:08;;;;;;;17.85;6.30;;;-2.30;99.90;;;;;;4954778;29;20028;-71
2022/01/07 03:56:34;;;;;;;17.60;6.97;;;-2.20;99.90;;;;;;4936322;29;20031;-73
2022/01/07 03:59:00;;;;;;;13.02;6.85;;;-2.10;99.90;;;;;;4954851;29;20033;-72
2022/01/07 04:01:26;;;;;;;13.80;6.70;;;-2.00;99.90;;;;;;4953695;28;20110;-73
2022/01/07 04:03:52;;;;;;;14.88;7.43;;;-1.90;99.90;;;;;;4954579;29;20034;-72
2022/01/07 04:06:20;;;;;;;12.95;5.97;;;-1.90;99.90;;;;;;4953751;29;20041;-72
2022/01/07 04:08:48;;;;;;;15.55;6.55;;;-1.80;99.90;;;;;;4954929;29;20090;-73
2022/01/07 04:11:14;;;;;;;12.20;5.88;;;-1.80;99.90;;;;;;4954574;29;20641;-73
2022/01/07 04:13:40;;;;;;;12.73;5.50;;;-1.70;99.90;;;;;;4953866;28;20141;-73
2022/01/07 04:16:05;;;;;;;10.82;6.00;;;-1.70;99.90;;;;;;4954325;29;20126;-72
2022/01/07 04:18:31;;;;;;;13.50;5.15;;;-1.70;99.90;;;;;;4953913;29;20031;-73
2022/01/07 04:20:57;;;;;;;14.85;6.72;;;-1.50;99.90;;;;;;4953944;29;20086;-72
2022/01/07 04:23:22;;;;;;;15.48;8.15;;;-1.50;99.90;;;;;;4953749;29;20062;-72
2022/01/07 04:25:48;;;;;;;16.58;9.48;;;-1.50;99.90;;;;;;4954028;29;20031;-72
2022/01/07 04:28:14;;;;;;;21.08;8.32;;;-1.60;99.90;;;;;;4954242;29;20090;-72
2022/01/07 04:30:44;;;;;;;16.20;8.18;;;-1.60;99.90;;;;;;4953571;29;20062;-71
2022/01/07 04:33:13;;;;;;;18.55;8.27;;;-1.60;99.90;;;;;;4954161;29;20066;-72
2022/01/07 04:35:40;;;;;;;15.90;7.97;;;-1.70;99.90;;;;;;4953261;29;20058;-72
2022/01/07 04:38:07;;;;;;;14.98;7.88;;;-1.80;99.90;;;;;;4954460;29;20119;-72
2022/01/07 04:40:33;;;;;;;14.55;7.35;;;-1.90;99.90;;;;;;4936384;29;20063;-72
2022/01/07 04:43:00;;;;;;;17.35;8.80;;;-1.80;99.90;;;;;;4953696;29;20106;-72
2022/01/07 04:45:26;;;;;;;17.42;7.68;;;-1.70;99.90;;;;;;4953303;29;20031;-71
2022/01/07 04:47:52;;;;;;;17.00;8.30;;;-1.60;99.90;;;;;;4954021;29;20461;-72
2022/01/07 04:50:20;;;;;;;16.38;8.45;;;-1.50;99.90;;;;;;4953404;29;20118;-71
2022/01/07 04:52:45;;;;;;;16.05;8.00;;;-1.50;99.90;;;;;;4953860;29;20066;-72
2022/01/07 04:55:20;;;;;;;13.15;7.40;;;-1.50;99.90;;;;;;4954212;29;20066;-72
2022/01/07 04:57:46;;;;;;;16.38;8.20;;;-1.40;99.90;;;;;;4953140;29;20038;-72
2022/01/07 05:00:14;;;;;;;18.25;8.60;;;-1.50;99.90;;;;;;4953758;29;20031;-72
2022/01/07 05:02:39;;;;;;;17.73;8.10;;;-1.50;99.90;;;;;;4952328;29;20032;-73
2022/01/07 05:05:05;;;;;;;13.00;7.63;;;-1.50;99.90;;;;;;4953867;29;20126;-72
2022/01/07 05:07:31;;;;;;;14.45;8.20;;;-1.60;99.90;;;;;;4952888;29;20058;-73
2022/01/07 05:09:57;;;;;;;15.63;8.20;;;-1.60;99.90;;;;;;4953554;29;20047;-70
2022/01/07 05:12:22;;;;;;;15.95;7.30;;;-1.60;99.90;;;;;;4952628;29;20035;-70
2022/01/07 05:14:48;;;;;;;15.77;8.90;;;-1.60;99.90;;;;;;4949632;28;20411;-71
2022/01/07 05:17:14;;;;;;;14.75;8.02;;;-1.60;99.90;;;;;;4964875;28;20492;-73
2022/01/07 05:19:39;;;;;;;16.38;8.05;;;-1.60;99.90;;;;;;4972428;28;20599;-72
2022/01/07 05:22:05;;;;;;;17.70;8.60;;;-1.60;99.90;;;;;;4972610;28;20038;-71
2022/01/07 05:24:30;;;;;;;18.60;8.63;;;-1.70;99.90;;;;;;4959338;28;20039;-72
2022/01/07 05:26:56;;;;;;;14.80;8.80;;;-1.70;99.90;;;;;;4953647;29;20034;-72
2022/01/07 05:29:21;;;;;;;14.48;8.23;;;-1.70;99.90;;;;;;4952504;29;20031;-71
2022/01/07 05:31:47;;;;;;;14.43;8.18;;;-1.70;99.90;;;;;;4953194;28;20066;-72
2022/01/07 05:34:13;;;;;;;16.60;8.68;;;-1.70;99.90;;;;;;4953616;28;20106;-71
2022/01/07 05:36:38;;;;;;;14.35;8.30;;;-1.70;99.90;;;;;;4971632;28;20023;-71
2022/01/07 05:39:05;;;;;;;18.30;9.43;;;-1.70;99.90;;;;;;4973160;28;20027;-74
2022/01/07 05:41:32;;;;;;;18.02;8.93;;;-1.80;99.90;;;;;;4966365;28;20078;-72
2022/01/07 05:43:57;;;;;;;16.95;9.05;;;-1.80;99.90;;;;;;4953507;28;20045;-72
2022/01/07 05:46:23;;;;;;;21.48;9.80;;;-1.80;99.90;;;;;;4968985;28;20121;-71
2022/01/07 05:48:49;;;;;;;17.10;8.85;;;-1.70;99.90;;;;;;4972752;28;20061;-72
2022/01/07 05:51:15;;;;;;;20.75;9.85;;;-1.60;99.90;;;;;;4967888;28;20043;-72
2022/01/07 05:53:41;;;;;;;17.58;9.40;;;-1.60;99.90;;;;;;4952588;29;20027;-72
2022/01/07 05:56:07;;;;;;;15.65;8.88;;;-1.50;99.90;;;;;;4967894;28;20034;-72
2022/01/07 05:58:33;;;;;;;14.15;9.40;;;-1.50;99.90;;;;;;4971775;28;20019;-72
2022/01/07 06:00:59;;;;;;;23.38;9.60;;;-1.50;99.90;;;;;;4970739;28;20039;-71
2022/01/07 06:03:26;;;;;;;17.48;9.45;;;-1.40;99.90;;;;;;4952382;29;20043;-72
2022/01/07 06:05:52;;;;;;;23.60;9.88;;;-1.30;99.90;;;;;;4953748;28;20027;-72
2022/01/07 06:08:18;;;;;;;18.80;9.48;;;-1.20;99.90;;;;;;4952433;29;20038;-70
2022/01/07 06:10:44;;;;;;;18.83;9.15;;;-1.30;99.90;;;;;;4952446;29;20093;-71
2022/01/07 06:13:09;;;;;;;17.65;8.98;;;-1.30;99.90;;;;;;4952629;28;20480;-71
2022/01/07 06:15:35;;;;;;;21.90;9.68;;;-1.30;99.90;;;;;;4952368;29;20027;-71
2022/01/07 06:18:04;;;;;;;22.23;9.38;;;-1.30;99.90;;;;;;4953131;29;20019;-72
2022/01/07 06:20:30;;;;;;;;;;;-1.30;99.90;;;;;;4953329;29;20076;-72
2022/01/07 06:22:56;;;;;;;16.67;8.52;;;-1.30;99.90;;;;;;4954234;29;19965;-72
2022/01/07 06:25:22;;;;;;;17.83;9.38;;;-1.40;99.90;;;;;;4954019;28;20023;-71
2022/01/07 06:27:48;;;;;;;20.55;10.70;;;-1.40;99.90;;;;;;4956631;29;20098;-72
2022/01/07 06:30:13;;;;;;;18.10;10.40;;;-1.40;99.90;;;;;;4956170;29;20056;-72
2022/01/07 06:32:39;;;;;;;18.67;10.27;;;-1.40;99.90;;;;;;4955051;29;20032;-71
2022/01/07 06:35:06;;;;;;;21.15;10.07;;;-1.40;99.90;;;;;;4956161;29;20052;-71
2022/01/07 06:37:32;;;;;;;18.27;9.88;;;-1.30;99.90;;;;;;4955500;29;20508;-71
2022/01/07 06:39:58;;;;;;;17.02;9.82;;;-1.30;99.90;;;;;;4955998;29;20039;-72
2022/01/07 06:42:24;;;;;;;19.30;10.30;;;-1.30;99.90;;;;;;4955091;29;20535;-73
2022/01/07 06:44:49;;;;;;;19.25;9.18;;;-1.30;99.90;;;;;;4955856;29;20038;-72
2022/01/07 06:47:15;;;;;;;17.75;10.18;;;-1.30;99.90;;;;;;4956557;29;20031;-71
2022/01/07 06:49:41;;;;;;;16.98;10.48;;;-1.20;99.90;;;;;;4955056;29;20150;-71
2022/01/07 06:52:06;;;;;;;16.17;8.95;;;-1.20;99.90;;;;;;4955892;29;20400;-70
2022/01/07 06:54:32;;;;;;;19.80;9.70;;;-1.10;99.90;;;;;;4954980;29;20034;-74
2022/01/07 06:56:58;;;;;;;17.50;8.85;;;-1.10;99.90;;;;;;4955644;29;20027;-73
2022/01/07 06:59:24;;;;;;;17.83;9.75;;;-1.10;99.90;;;;;;4955342;29;20453;-67
2022/01/07 07:01:50;;;;;;;16.08;9.15;;;-1.00;99.90;;;;;;4955937;29;20039;-73
2022/01/07 07:04:16;;;;;;;19.90;9.15;;;-1.00;99.90;;;;;;4954131;29;20035;-69
2022/01/07 07:06:42;;;;;;;19.85;9.43;;;-1.00;99.90;;;;;;4954798;29;20106;-69
2022/01/07 07:09:08;;;;;;;17.88;9.98;;;-1.10;99.90;;;;;;4955630;29;20110;-68
2022/01/07 07:11:34;;;;;;;17.95;9.52;;;-1.10;99.90;;;;;;4954941;29;20430;-71
2022/01/07 07:14:00;;;;;;;15.68;8.95;;;-1.10;99.90;;;;;;4955087;28;20493;-71
2022/01/07 07:16:26;;;;;;;21.05;8.85;;;-1.10;99.90;;;;;;4954749;29;20039;-70
2022/01/07 07:18:52;;;;;;;16.50;9.18;;;-1.10;99.90;;;;;;4955506;29;20023;-71
2022/01/07 07:21:17;;;;;;;18.25;9.35;;;-1.00;99.90;;;;;;4955758;29;20035;-69
2022/01/07 07:23:43;;;;;;;22.40;9.52;;;-1.00;99.90;;;;;;4954280;29;20030;-69
2022/01/07 07:26:09;;;;;;;15.40;8.90;;;-0.90;99.90;;;;;;4952543;29;20110;-70
2022/01/07 07:28:36;;;;;;;16.42;8.82;;;-0.90;99.90;;;;;;4952660;29;20528;-69
2022/01/07 07:31:05;;;;;;;15.98;8.50;;;-0.90;99.90;;;;;;4956556;29;20065;-69
2022/01/07 07:33:54;;;;;;;12.50;7.47;;;-0.70;99.90;;;;;;4954929;29;20074;-72
2022/01/07 07:36:31;;;;;;;13.30;8.45;;;-0.70;99.90;;;;;;4954035;28;20035;-71
2022/01/07 07:39:08;;;;;;;14.80;7.88;;;-0.70;99.90;;;;;;4955344;29;20074;-71
2022/01/07 07:41:35;;;;;;;13.88;8.07;;;-0.70;99.90;;;;;;4956078;29;20042;-71
2022/01/07 07:44:02;;;;;;;13.75;7.75;;;-0.70;99.90;;;;;;4955693;29;20388;-70
2022/01/07 07:46:30;;;;;;;13.60;8.23;;;-0.70;99.90;;;;;;4955530;29;20035;-71
2022/01/07 07:48:57;;;;;;;15.88;8.40;;;-0.60;99.90;;;;;;4955993;29;20512;-71
2022/01/07 07:51:22;;;;;;;13.82;8.13;;;-0.70;99.90;;;;;;4956912;29;20035;-69
2022/01/07 07:53:48;;;;;;;18.20;8.93;;;-0.60;99.90;;;;;;4956166;29;20135;-70
2022/01/07 07:56:16;;;;;;;12.57;8.35;;;-0.50;99.90;;;;;;4954629;29;20496;-70
2022/01/07 07:58:43;;;;;;;13.45;8.40;;;-0.50;99.90;;;;;;4954149;29;20035;-72
2022/01/07 08:01:09;;;;;;;17.42;8.40;;;-0.50;99.90;;;;;;4954895;29;20031;-71
2022/01/07 08:03:34;;;;;;;15.35;8.35;;;-0.50;99.90;;;;;;4953847;29;20038;-70
2022/01/07 08:06:00;;;;;;;13.60;7.75;;;-0.50;99.90;;;;;;4946504;29;20401;-71
2022/01/07 08:08:28;;;;;;;18.40;8.95;;;-0.40;99.90;;;;;;4970945;28;20039;-71
2022/01/07 08:10:58;;;;;;;18.90;8.68;;;-0.50;99.90;;;;;;4949844;29;20619;-71
2022/01/07 08:16:10;;;;;;;16.98;7.80;;;-0.30;99.90;;;;;;4973386;28;20038;-71
2022/01/07 08:18:37;;;;;;;19.05;8.02;;;-0.30;99.90;;;;;;4972454;28;20050;-71
2022/01/07 08:21:08;;;;;;;15.73;7.85;;;-0.30;99.90;;;;;;4972404;28;20042;-71
2022/01/07 08:23:36;;;;;;;13.93;8.30;;;-0.30;99.90;;;;;;4972601;28;20034;-69
2022/01/07 08:26:07;;;;;;;17.08;8.68;;;-0.30;99.90;;;;;;4971943;28;20030;-70
2022/01/07 08:28:39;;;;;;;15.25;8.48;;;-0.20;99.90;;;;;;4971165;28;20114;-69
2022/01/07 08:36:26;;;;;;;14.40;7.00;;;-0.20;99.90;;;;;;4972954;28;20093;-72
2022/01/07 08:38:53;;;;;;;23.65;7.93;;;-0.10;99.90;;;;;;4972635;28;20102;-71
2022/01/07 08:41:21;;;;;;;12.20;7.55;;;-0.10;99.90;;;;;;4972968;28;20117;-71
2022/01/07 08:43:47;;;;;;;16.52;8.05;;;-0.10;99.90;;;;;;4969936;28;20042;-74
2022/01/07 08:46:12;;;;;;;14.50;7.78;;;-0.10;99.90;;;;;;4972797;28;20027;-72
2022/01/07 08:48:38;;;;;;;11.90;6.70;;;0.00;99.90;;;;;;4985041;28;20030;-72
2022/01/07 08:51:05;;;;;;;12.13;7.05;;;0.10;99.90;;;;;;4967367;28;20049;-73
2022/01/07 08:53:31;;;;;;;15.65;7.05;;;0.10;99.90;;;;;;4973024;28;20033;-70
2022/01/07 08:55:58;;;;;;;16.15;8.05;;;0.20;99.90;;;;;;4972260;28;20039;-73
2022/01/07 08:58:23;;;;;;;15.95;7.53;;;0.30;99.90;;;;;;4972907;28;20035;-72
2022/01/07 09:00:49;;;;;;;12.95;7.25;;;0.20;99.90;;;;;;4972263;28;20034;-73
2022/01/07 09:03:15;;;;;;;13.93;7.28;;;0.20;99.90;;;;;;4971688;28;20177;-71
2022/01/07 09:05:41;;;;;;;14.90;7.68;;;0.30;99.90;;;;;;4971560;28;20035;-73
2022/01/07 09:08:09;;;;;;;14.20;7.28;;;0.30;99.90;;;;;;4975605;28;20456;-72
2022/01/07 09:10:35;;;;;;;13.00;7.45;;;0.30;99.90;;;;;;4970843;28;20082;-72
2022/01/07 09:13:01;;;;;;;12.32;7.05;;;0.40;99.90;;;;;;4988737;28;20026;-75
2022/01/07 09:15:27;;;;;;;12.75;6.82;;;0.40;99.90;;;;;;4992924;28;20049;-74
2022/01/07 09:17:52;;;;;;;11.88;6.93;;;0.40;99.90;;;;;;4980325;28;20443;-72
2022/01/07 09:20:18;;;;;;;9.52;5.60;;;0.40;99.90;;;;;;4973416;28;20027;-72
2022/01/07 09:22:44;;;;;;;14.10;7.15;;;0.50;99.90;;;;;;4972548;28;20027;-73
2022/01/07 09:25:10;;;;;;;11.15;6.68;;;0.50;99.90;;;;;;4972100;28;20034;-69
2022/01/07 09:27:38;;;;;;;13.35;6.97;;;0.60;99.90;;;;;;4971991;28;20084;-71
2022/01/07 09:30:05;;;;;;;11.50;6.45;;;0.60;99.90;;;;;;4972813;28;20080;-70
2022/01/07 09:32:30;;;;;;;12.38;6.35;;;0.60;99.90;;;;;;4972305;28;20037;-73
2022/01/07 09:34:56;;;;;;;13.68;6.25;;;0.70;99.90;;;;;;4970153;28;20109;-73
2022/01/07 09:37:22;;;;;;;11.10;6.53;;;0.80;99.90;;;;;;4971968;28;20081;-71
2022/01/07 09:39:48;;;;;;;10.88;6.95;;;0.80;99.90;;;;;;4970989;28;20374;-71
2022/01/07 09:42:13;;;;;;;10.40;5.75;;;0.80;99.90;;;;;;4971535;28;20441;-70
2022/01/07 09:44:44;;;;;;;11.85;5.70;;;0.80;99.90;;;;;;4971399;28;20040;-71
2022/01/07 09:47:11;;;;;;;10.75;6.10;;;0.90;99.90;;;;;;4972391;28;20236;-71
2022/01/07 09:49:41;;;;;;;10.25;6.13;;;0.90;99.90;;;;;;4972064;28;20089;-70
2022/01/07 09:52:07;;;;;;;9.82;5.60;;;0.90;99.90;;;;;;4972512;28;20019;-71
2022/01/07 09:54:35;;;;;;;13.93;6.13;;;0.90;99.90;;;;;;4972099;28;20040;-72
2022/01/07 09:57:02;;;;;;;6.78;4.95;;;0.90;99.90;;;;;;4972635;28;20023;-75
2022/01/07 09:59:28;;;;;;;11.68;6.38;;;0.90;99.90;;;;;;4972684;28;20018;-74
2022/01/07 10:01:55;;;;;;;9.13;5.63;;;0.90;99.90;;;;;;4976051;28;20042;-72
2022/01/07 10:04:34;;;;;;;9.13;5.85;;;0.90;99.90;;;;;;4976298;28;20031;-73
2022/01/07 10:07:13;;;;;;;10.18;6.47;;;1.00;99.90;;;;;;4974946;28;20027;-73
2022/01/07 10:10:02;;;;;;;11.52;6.78;;;0.90;99.90;;;;;;4975532;28;20103;-74
2022/01/07 10:12:31;;;;;;;8.88;5.35;;;0.90;99.90;;;;;;4964267;28;20039;-75
2022/01/07 10:15:12;;;;;;;8.00;5.70;;;1.00;99.90;;;;;;4965827;28;20113;-74
2022/01/07 10:17:38;;;;;;;8.90;5.20;;;1.00;99.90;;;;;;4974874;28;20141;-72
2022/01/07 10:20:04;;;;;;;10.30;5.60;;;1.10;99.90;;;;;;4975633;28;20121;-72
2022/01/07 10:22:54;;;;;;;14.20;5.78;;;1.10;99.90;;;;;;4975106;28;20102;-73
2022/01/07 10:25:23;;;;;;;13.48;6.05;;;1.10;99.90;;;;;;4975923;28;20030;-73
2022/01/07 10:27:48;;;;;;;12.30;6.53;;;1.20;99.90;;;;;;4974697;28;20033;-73
2022/01/07 10:30:17;;;;;;;11.80;6.22;;;1.20;99.90;;;;;;4969654;28;20042;-73
2022/01/07 10:32:44;;;;;;;12.07;6.00;;;1.10;99.90;;;;;;4975182;28;20026;-73
2022/01/07 10:35:13;;;;;;;12.82;6.45;;;1.10;99.90;;;;;;4976563;28;20027;-71
2022/01/07 10:37:48;;;;;;;11.50;6.20;;;1.10;99.90;;;;;;4974672;28;20037;-75
2022/01/07 10:40:29;;;;;;;12.93;7.18;;;1.10;99.90;;;;;;4976215;28;20458;-79
2022/01/07 10:43:15;;;;;;;14.20;6.57;;;1.10;99.90;;;;;;4975164;28;20121;-83
2022/01/07 10:46:12;;;;;;;13.30;6.50;;;1.10;99.90;;;;;;4976386;28;20380;-71
2022/01/07 10:48:55;;;;;;;13.68;7.05;;;1.10;99.90;;;;;;4969582;28;20403;-71
2022/01/07 10:51:22;;;;;;;10.10;7.10;;;1.10;99.90;;;;;;4976472;28;20037;-75
2022/01/07 10:53:56;;;;;;;14.38;6.68;;;1.10;99.90;;;;;;4978444;28;20468;-70
2022/01/07 10:56:31;;;;;;;10.18;6.30;;;1.10;99.90;;;;;;4979305;28;20027;-71
2022/01/07 10:59:06;;;;;;;16.48;7.20;;;1.10;99.90;;;;;;4976942;28;20380;-72
2022/01/07 11:01:40;;;;;;;11.85;7.10;;;1.00;99.90;;;;;;4990118;28;20153;-69
2022/01/07 11:04:09;;;;;;;13.52;7.15;;;1.00;99.90;;;;;;4999202;28;20026;-71
2022/01/07 11:06:36;;;;;;;13.68;7.63;;;0.90;99.90;;;;;;4995587;28;20025;-69
2022/01/07 11:09:06;;;;;;;15.02;7.72;;;0.90;99.90;;;;;;4975970;28;20035;-70
2022/01/07 11:11:33;;;;;;;15.57;8.63;;;0.80;99.90;;;;;;4974261;28;20078;-73
2022/01/07 11:14:07;;;;;;;13.07;7.80;;;0.80;99.90;;;;;;4974647;28;20704;-70
2022/01/07 11:16:35;;;;;;;15.60;7.70;;;0.70;99.90;;;;;;4975913;28;20030;-69
2022/01/07 11:19:02;;;;;;;16.73;8.18;;;0.70;99.90;;;;;;4974354;28;20181;-71
2022/01/07 11:21:29;;;;;;;20.33;8.32;;;0.70;99.90;;;;;;4975057;28;20484;-70
2022/01/07 11:23:54;;;;;;;15.18;7.85;;;0.70;99.90;;;;;;4973480;28;20053;-70
2022/01/07 11:26:20;;;;;;;15.93;8.15;;;0.70;99.90;;;;;;4975075;28;20026;-69
2022/01/07 11:29:00;;;;;;;15.82;8.25;;;0.60;99.90;;;;;;4972965;28;20058;-68
2022/01/07 11:31:27;;;;;;;;;;;0.70;99.90;;;;;;4975324;28;20509;-69
2022/01/07 11:34:23;;;;;;;18.17;8.35;;;0.70;99.90;;;;;;4974069;28;19917;-69
2022/01/07 11:36:49;;;;;;;16.90;7.95;;;0.80;99.90;;;;;;4974002;28;20031;-69
2022/01/07 11:39:15;;;;;;;16.08;8.70;;;0.90;99.90;;;;;;4974623;28;20109;-69
2022/01/07 11:41:47;;;;;;;15.52;9.07;;;0.90;99.90;;;;;;4973690;28;20030;-68
2022/01/07 11:44:30;;;;;;;14.38;7.75;;;1.00;99.90;;;;;;4974462;28;20456;-69
2022/01/07 11:47:21;;;;;;;13.45;7.93;;;1.10;99.90;;;;;;4973733;28;20448;-68
2022/01/07 11:50:03;;;;;;;18.65;7.45;;;1.20;99.90;;;;;;4973582;28;20043;-68
2022/01/07 11:52:31;;;;;;;16.17;7.65;;;1.30;99.90;;;;;;4974422;28;20078;-70
2022/01/07 11:55:32;;;;;;;15.57;8.13;;;1.40;99.90;;;;;;4973487;28;20508;-69
2022/01/07 11:58:06;;;;;;;14.93;8.32;;;1.50;99.90;;;;;;4972381;28;20029;-69
2022/01/07 12:01:01;;;;;;;10.35;7.07;;;1.60;99.90;;;;;;4974057;28;20026;-70
2022/01/07 12:03:48;;;;;;;12.88;7.00;;;1.70;99.90;;;;;;4974310;28;20145;-70
2022/01/07 12:06:26;;;;;;;15.52;7.18;;;1.70;99.90;;;;;;4974048;28;20479;-69
2022/01/07 12:09:09;;;;;;;13.65;7.68;;;1.80;99.90;;;;;;4973973;28;20035;-69
2022/01/07 12:11:37;;;;;;;14.40;7.38;;;1.90;99.90;;;;;;4974428;28;20388;-69
2022/01/07 12:14:07;;;;;;;14.43;7.38;;;2.00;99.90;;;;;;4965219;28;20062;-69
2022/01/07 12:16:34;;;;;;;9.85;6.95;;;2.00;99.90;;;;;;4954819;29;20122;-69
2022/01/07 12:19:28;;;;;;;14.52;6.97;;;1.90;99.90;;;;;;4954262;29;20035;-69
2022/01/07 12:21:56;;;;;;;11.43;6.75;;;1.90;99.90;;;;;;4936785;29;20557;-69
2022/01/07 12:24:24;;;;;;;13.52;7.40;;;2.00;99.90;;;;;;4954320;28;20031;-69
2022/01/07 12:27:07;;;;;;;13.43;6.82;;;1.90;99.90;;;;;;4953636;29;20019;-69
2022/01/07 12:29:36;;;;;;;11.23;6.13;;;2.00;99.90;;;;;;4953308;29;20102;-69
2022/01/07 12:32:04;;;;;;;15.75;7.00;;;2.00;99.90;;;;;;4953707;29;20424;-70
2022/01/07 12:34:37;;;;;;;11.70;5.97;;;2.00;99.90;;;;;;4954705;29;20035;-72
2022/01/07 12:37:05;;;;;;;11.63;5.53;;;2.00;99.90;;;;;;4953658;29;20046;-74
2022/01/07 12:39:33;;;;;;;12.63;6.25;;;2.10;99.90;;;;;;4954245;29;20038;-70
2022/01/07 12:41:59;;;;;;;12.55;5.97;;;2.10;99.90;;;;;;4953868;29;20058;-70
2022/01/07 12:44:25;;;;;;;10.48;6.63;;;2.20;99.90;;;;;;4954855;29;20449;-70
2022/01/07 12:46:57;;;;;;;14.68;6.07;;;2.20;99.90;;;;;;4953687;29;20090;-70
2022/01/07 12:49:53;;;;;;;11.00;5.80;;;2.30;99.90;;;;;;4954511;29;20037;-70
2022/01/07 12:52:29;;;;;;;10.68;5.75;;;2.40;99.90;;;;;;4946086;29;20043;-70